Bekir Hacibekiroglu — TCSY2 — position and weather

sailwx.info

Track history (hours):
 
Tides and Currents Weather Stations Pressure Air Temp Water Temp Dewpoint Dewpoint Depression Visibility Wind Speed Wind Dir Waves Ship Positions

Bekir Hacibekiroglu

Last reported at 2015-Feb-27 06:30 UTC. Time now 2015-Feb-27 21:13 UTC.
Position N 42°07' E 017°48'.

Length 83 m; draft 4 m.

Type: Cargo ship. MMSI: 271002635.

Date/timePositionNaut miles runAvg speedWind from/ knotsBaromVisibWave heightAir tempDewpointWater temp
2015-Feb-27 06:30N 42°07' E 017°48'9 9.2
2015-Feb-27 05:31N 42°03' E 017°58'9 9.0
2015-Feb-27 04:33N 41°59' E 018°09'11 9.4
2015-Feb-27 03:25N 41°53' E 018°21'9 9.6
2015-Feb-27 02:28N 41°48' E 018°31'  
2015-Feb-24 01:23N 37°31' E 024°05'20 0.7
2015-Feb-22 21:23N 37°49' E 024°16'9 9.1
2015-Feb-22 20:23N 37°53' E 024°27'  
2015-Feb-20 07:32N 40°57' E 028°53'  
Track history (hours):
 
Tides and Currents Weather Stations Pressure Air Temp Water Temp Dewpoint Dewpoint Depression Visibility Wind Speed Wind Dir Waves Ship Positions

Bekir Hacibekiroglu

Last reported at 2015-Feb-27 06:30 UTC. Time now 2015-Feb-27 21:13 UTC.
Position N 42°07' E 017°48'.

Length 83 m; draft 4 m.

Type: Cargo ship. MMSI: 271002635.

Date/timePositionNaut miles runAvg speedWind from/ knotsBaromVisibWave heightAir tempDewpointWater temp
2015-Feb-27 06:30N 42°07' E 017°48'9 9.2
2015-Feb-27 05:31N 42°03' E 017°58'9 9.0
2015-Feb-27 04:33N 41°59' E 018°09'11 9.4
2015-Feb-27 03:25N 41°53' E 018°21'9 9.6
2015-Feb-27 02:28N 41°48' E 018°31'  
2015-Feb-24 01:23N 37°31' E 024°05'20 0.7
2015-Feb-22 21:23N 37°49' E 024°16'9 9.1
2015-Feb-22 20:23N 37°53' E 024°27'  
2015-Feb-20 07:32N 40°57' E 028°53'  

Dump ship's entire track history